Flight Information

DEPARTURE
MONTEREY, CA
Elevation:
256
Runways:
10R/28L - 7175x150 - ASPH-G
10L/28R - 3503x60 - ASPH-F
ATIS:
119.25 831-375-7433
Clearance Delivery:
135.45
Ground:
120.875
Tower:
MONTEREY TOWER 118.4
DESTINATION
,
Elevation:
TPA:
1000 (est.)


6903.6 NM70° True-15° Var54° HDG

Flight Plan:
(click to file on line)

1. Type
2. Aircraft Identification
3. Aircraft Type / Special Equipment
4. True Airspeed
kts
5. Departure Airport
(ICAO code)
6. Arriving Airport
(ICAO code)
7. Cruising Altitude
ft
8. Alternate Airport
(ICAO code)
9. Route of Flight
10. Remarks


00:00:00 Departure ATIS: Destination ATIS:

Clearance Limit:
Route:
Altitude: Expect in minutes
Frequency:
Transponder: (7500 Hijack / 7600 Lost Comms / 7700 Emergency)


KMRY 010828Z AUTO 23005KT 10SM SCT010 13/10 A3006 RMK AO2 T01330100
Time: 2020-04-01T08:28:00Z
1585731016
Winds: 230 @ 5 kts
Visibility: 10.0 sm
Clouds (AGL): SCT 1000
Temperature: 13.3 C
Dew Point: 10.0 C
Pressure: 30.059055 in Hgbr


Notes:

Data extracted from FAA Digital Chart Supplement. Effective: 0901Z Thursday, Mar 26, 2020 to 0901Z Thursday, May 21, 2020
Current ATIS data is provided courtisy of PilotEdge.